createdAt,value
2017-06-12T00:00:41.311Z,21.80
2017-06-12T00:03:07.581Z,21.90
2017-06-12T00:05:33.901Z,21.80
2017-06-12T00:08:00.148Z,21.70
2017-06-12T00:10:26.476Z,21.70
2017-06-12T00:12:53.113Z,21.70
2017-06-12T00:15:19.756Z,21.70
2017-06-12T00:17:46.428Z,21.80
2017-06-12T00:20:12.714Z,21.80
2017-06-12T00:22:38.968Z,21.70
2017-06-12T00:25:05.236Z,21.80
2017-06-12T00:27:31.564Z,21.70
2017-06-12T00:29:57.828Z,21.70
2017-06-12T00:32:24.104Z,21.60
2017-06-12T00:34:50.353Z,21.50
2017-06-12T00:37:16.624Z,21.50
2017-06-12T00:39:43.238Z,21.40
2017-06-12T00:42:09.525Z,21.40
2017-06-12T00:44:35.772Z,21.40
2017-06-12T00:47:02.023Z,21.40
2017-06-12T00:49:28.378Z,21.50
2017-06-12T00:51:54.642Z,21.60
2017-06-12T00:54:20.921Z,21.50
2017-06-12T00:56:47.222Z,21.40
2017-06-12T00:59:13.469Z,21.30
2017-06-12T01:01:39.749Z,21.30
2017-06-12T01:04:06.069Z,21.20
2017-06-12T01:06:32.364Z,21.10
2017-06-12T01:08:58.630Z,21.10
2017-06-12T01:11:24.915Z,21.10
2017-06-12T01:13:51.179Z,21.10
2017-06-12T01:16:17.448Z,21.10
2017-06-12T01:18:43.932Z,21.10
2017-06-12T01:21:10.574Z,21.00
2017-06-12T01:23:37.250Z,21.00
2017-06-12T01:26:03.574Z,21.00
2017-06-12T01:28:29.860Z,21.00
2017-06-12T01:30:56.150Z,21.00
2017-06-12T01:33:22.423Z,20.90
2017-06-12T01:35:48.704Z,20.80
2017-06-12T01:38:14.968Z,20.70
2017-06-12T01:40:41.266Z,20.70
2017-06-12T01:43:07.565Z,20.60
2017-06-12T01:45:33.853Z,20.60
2017-06-12T01:48:00.308Z,20.50
2017-06-12T01:50:26.944Z,20.40
2017-06-12T01:52:53.647Z,20.40
2017-06-12T01:55:19.940Z,20.40
2017-06-12T01:57:46.449Z,20.30
2017-06-12T02:00:13.121Z,20.20
2017-06-12T02:02:39.393Z,20.20
2017-06-12T02:05:05.696Z,20.10
2017-06-12T02:07:31.982Z,20.10
2017-06-12T02:09:58.648Z,20.10
2017-06-12T02:12:24.917Z,20.20
2017-06-12T02:14:51.213Z,20.10
2017-06-12T02:17:17.481Z,20.10
2017-06-12T02:19:43.744Z,20.20
2017-06-12T02:22:10.402Z,20.20
2017-06-12T02:24:36.799Z,20.20
2017-06-12T02:27:03.420Z,20.10
2017-06-12T02:29:29.705Z,20.20
2017-06-12T02:31:55.944Z,20.20
2017-06-12T02:34:22.217Z,20.10
2017-06-12T02:36:48.493Z,20.00
2017-06-12T02:39:14.786Z,20.00
2017-06-12T02:41:41.449Z,20.00
2017-06-12T02:44:07.704Z,20.00
2017-06-12T02:46:34.080Z,20.10
2017-06-12T02:49:00.719Z,20.10
2017-06-12T02:51:27.013Z,20.10
2017-06-12T02:53:53.248Z,20.10
2017-06-12T02:56:19.547Z,20.10
2017-06-12T02:58:45.788Z,20.10
2017-06-12T03:01:12.044Z,20.00
2017-06-12T03:03:38.323Z,20.00
2017-06-12T03:06:04.573Z,20.00
2017-06-12T03:08:30.853Z,20.00
2017-06-12T03:10:57.121Z,19.90
2017-06-12T03:13:23.409Z,19.90
2017-06-12T03:15:49.648Z,19.90
2017-06-12T03:18:16.276Z,19.90
2017-06-12T03:20:42.933Z,19.90
2017-06-12T03:23:09.187Z,19.90
2017-06-12T03:25:35.453Z,19.90
2017-06-12T03:28:01.734Z,19.90
2017-06-12T03:30:28.027Z,19.90
2017-06-12T03:32:54.463Z,19.90
2017-06-12T03:35:21.117Z,19.80
2017-06-12T03:37:47.389Z,19.80
2017-06-12T03:40:13.651Z,19.80
2017-06-12T03:42:39.934Z,19.80
2017-06-12T03:45:06.192Z,19.80
2017-06-12T03:47:32.473Z,19.80
2017-06-12T03:49:58.742Z,19.90
2017-06-12T03:52:24.999Z,20.00
2017-06-12T03:54:51.269Z,19.90
2017-06-12T03:57:17.534Z,20.00
2017-06-12T03:59:43.797Z,20.00
2017-06-12T04:02:10.436Z,20.10
2017-06-12T04:04:37.101Z,20.20
2017-06-12T04:07:03.369Z,20.20
2017-06-12T04:09:29.602Z,20.20
2017-06-12T04:11:55.868Z,20.20
2017-06-12T04:14:22.113Z,20.20
2017-06-12T04:16:48.435Z,20.20
2017-06-12T04:19:14.684Z,20.20
2017-06-12T04:21:40.920Z,20.30
2017-06-12T04:24:07.178Z,20.40
2017-06-12T04:26:33.523Z,20.50
2017-06-12T04:29:00.180Z,20.60
2017-06-12T04:31:26.459Z,20.60
2017-06-12T04:33:52.720Z,20.70
2017-06-12T04:36:19.001Z,20.80
2017-06-12T04:38:45.287Z,20.90
2017-06-12T04:41:11.573Z,20.80
2017-06-12T04:43:37.836Z,20.90
2017-06-12T04:46:04.137Z,20.90
2017-06-12T04:48:30.380Z,20.80
2017-06-12T04:50:56.683Z,20.90
2017-06-12T04:53:22.957Z,21.00
2017-06-12T04:55:49.217Z,20.90
2017-06-12T04:58:15.508Z,21.00
2017-06-12T05:00:42.164Z,21.20
2017-06-12T05:03:08.453Z,21.20
2017-06-12T05:05:34.712Z,21.30
2017-06-12T05:08:00.995Z,21.30
2017-06-12T05:10:27.291Z,21.50
2017-06-12T05:12:53.534Z,21.40
2017-06-12T05:15:19.926Z,21.50
2017-06-12T05:17:46.555Z,21.60
2017-06-12T05:20:12.904Z,21.60
2017-06-12T05:22:39.186Z,21.70
2017-06-12T05:25:05.436Z,21.70
2017-06-12T05:27:31.723Z,21.50
2017-06-12T05:29:57.969Z,21.40
2017-06-12T05:32:24.252Z,21.60
2017-06-12T05:34:50.533Z,21.60
2017-06-12T05:37:17.094Z,21.50
2017-06-12T05:39:43.360Z,21.50
2017-06-12T05:42:09.663Z,21.60
2017-06-12T05:44:36.313Z,21.60
2017-06-12T05:47:03.554Z,21.60
2017-06-12T05:49:30.195Z,21.70
2017-06-12T05:51:56.799Z,21.70
2017-06-12T05:54:23.100Z,21.70
2017-06-12T05:56:49.406Z,21.80
2017-06-12T05:59:15.682Z,21.80
2017-06-12T06:01:41.961Z,21.80
2017-06-12T06:04:08.597Z,21.70
2017-06-12T06:06:35.245Z,21.80
2017-06-12T06:09:01.652Z,21.70
2017-06-12T06:11:28.495Z,21.70
2017-06-12T06:13:54.782Z,21.70
2017-06-12T06:16:21.045Z,21.70
2017-06-12T06:18:47.331Z,21.80
2017-06-12T06:21:13.633Z,21.90
2017-06-12T06:23:39.904Z,21.90
2017-06-12T06:26:06.154Z,21.90
2017-06-12T06:28:32.411Z,21.80
2017-06-12T06:30:58.681Z,21.80
2017-06-12T06:33:24.978Z,21.90
2017-06-12T06:35:51.264Z,21.90
2017-06-12T06:38:17.544Z,21.90
2017-06-12T06:40:43.848Z,21.80
2017-06-12T06:43:10.492Z,21.80
2017-06-12T06:45:36.741Z,21.80
2017-06-12T06:48:02.996Z,21.90
2017-06-12T06:50:29.257Z,21.90
2017-06-12T06:52:55.556Z,22.00
2017-06-12T06:55:21.817Z,22.00
2017-06-12T06:57:48.097Z,21.90
2017-06-12T07:00:14.386Z,21.90
2017-06-12T07:02:40.644Z,22.00
2017-06-12T07:05:06.936Z,22.10
2017-06-12T07:07:33.184Z,21.90
2017-06-12T07:09:59.891Z,21.80
2017-06-12T07:12:26.128Z,21.80
2017-06-12T07:14:52.380Z,21.80
2017-06-12T07:17:18.656Z,21.80
2017-06-12T07:19:44.930Z,21.90
2017-06-12T07:22:11.604Z,22.20
2017-06-12T07:24:37.860Z,22.20
2017-06-12T07:27:04.164Z,22.40
2017-06-12T07:29:30.431Z,22.40
2017-06-12T07:31:56.698Z,22.60
2017-06-12T07:34:23.412Z,22.90
2017-06-12T07:36:49.686Z,22.90
2017-06-12T07:39:15.964Z,23.00
2017-06-12T07:41:42.225Z,23.50
2017-06-12T07:44:08.947Z,23.80
2017-06-12T07:46:35.190Z,24.10
2017-06-12T07:49:01.462Z,24.50
2017-06-12T07:51:27.940Z,24.70
2017-06-12T07:53:54.592Z,24.60
2017-06-12T07:56:21.234Z,24.60
2017-06-12T07:58:47.504Z,24.60
2017-06-12T08:01:14.174Z,24.60
2017-06-12T08:03:40.514Z,24.80
2017-06-12T08:06:06.777Z,24.70
2017-06-12T08:08:33.154Z,24.60
2017-06-12T08:10:59.399Z,24.60
2017-06-12T08:13:25.665Z,24.60
2017-06-12T08:15:51.948Z,24.60
2017-06-12T08:18:18.245Z,24.70
2017-06-12T08:20:44.501Z,24.80
2017-06-12T08:23:10.776Z,24.80
2017-06-12T08:25:37.069Z,25.10
2017-06-12T08:28:04.153Z,25.10
2017-06-12T08:30:30.420Z,25.20
2017-06-12T08:32:56.683Z,25.40
2017-06-12T08:35:23.200Z,25.40
2017-06-12T08:37:49.474Z,25.40
2017-06-12T08:40:15.749Z,25.20
2017-06-12T08:42:42.045Z,25.00
2017-06-12T08:45:08.312Z,25.10
2017-06-12T08:47:34.597Z,25.40
2017-06-12T08:50:00.860Z,25.50
2017-06-12T08:52:27.168Z,25.50
2017-06-12T08:54:53.441Z,25.80
2017-06-12T08:57:19.702Z,26.10
2017-06-12T08:59:46.013Z,26.30
2017-06-12T09:02:12.261Z,26.10
2017-06-12T09:04:38.875Z,26.20
2017-06-12T09:07:05.132Z,26.40
2017-06-12T09:09:31.404Z,26.50
2017-06-12T09:11:57.675Z,26.60
2017-06-12T09:14:23.950Z,26.70
2017-06-12T09:16:50.241Z,26.90
2017-06-12T09:19:16.863Z,27.70
2017-06-12T09:21:43.510Z,27.90
2017-06-12T09:24:10.337Z,27.90
2017-06-12T09:26:36.952Z,27.90
2017-06-12T09:29:03.221Z,27.90
2017-06-12T09:31:29.873Z,27.70
2017-06-12T09:33:56.196Z,27.70
2017-06-12T09:36:22.500Z,27.60
2017-06-12T09:38:48.756Z,27.30
2017-06-12T09:41:15.032Z,27.10
2017-06-12T09:43:41.293Z,27.20
2017-06-12T09:46:07.617Z,27.00
2017-06-12T09:48:34.255Z,27.20
2017-06-12T09:51:00.542Z,27.20
2017-06-12T09:53:26.833Z,27.10
2017-06-12T09:55:53.085Z,27.10
2017-06-12T09:58:19.401Z,27.40
2017-06-12T10:00:45.669Z,27.40
2017-06-12T10:03:11.973Z,27.40
2017-06-12T10:05:38.227Z,27.20
2017-06-12T10:08:04.532Z,27.10
2017-06-12T10:10:30.821Z,26.90
2017-06-12T10:12:57.064Z,26.80
2017-06-12T10:15:23.336Z,26.70
2017-06-12T10:17:49.585Z,26.80
2017-06-12T10:20:15.876Z,27.30
2017-06-12T10:22:42.176Z,27.70
2017-06-12T10:25:08.477Z,27.90
2017-06-12T10:27:34.738Z,28.00
2017-06-12T10:30:01.391Z,28.30
2017-06-12T10:32:27.670Z,28.30
2017-06-12T10:34:54.023Z,28.20
2017-06-12T10:37:20.672Z,28.90
2017-06-12T10:39:47.285Z,29.20
2017-06-12T10:42:13.560Z,29.20
2017-06-12T10:44:39.833Z,29.20
2017-06-12T10:47:06.187Z,28.90
2017-06-12T10:49:33.029Z,28.10
2017-06-12T10:51:59.637Z,28.20
2017-06-12T10:54:25.920Z,28.20
2017-06-12T10:56:52.208Z,28.30
2017-06-12T10:59:18.481Z,28.50
2017-06-12T11:01:44.761Z,28.70
2017-06-12T11:04:11.025Z,29.00
2017-06-12T11:06:37.708Z,29.50
2017-06-12T11:09:04.041Z,29.50
2017-06-12T11:11:30.354Z,29.60
2017-06-12T11:13:56.671Z,29.70
2017-06-12T11:16:22.934Z,29.80
2017-06-12T11:18:49.233Z,29.90
2017-06-12T11:21:15.631Z,30.00
2017-06-12T11:23:42.678Z,30.10
2017-06-12T11:26:08.958Z,30.30
2017-06-12T11:28:40.205Z,30.50
2017-06-12T11:31:06.507Z,30.70
2017-06-12T11:33:32.752Z,30.90
2017-06-12T11:35:59.149Z,30.90
2017-06-12T11:38:25.985Z,30.80
2017-06-12T11:40:52.796Z,30.80
2017-06-12T11:43:19.180Z,30.80
2017-06-12T11:45:45.693Z,30.60
2017-06-12T11:48:11.999Z,30.50
2017-06-12T11:50:38.265Z,30.50
2017-06-12T11:53:04.542Z,30.40
2017-06-12T11:55:30.812Z,30.50
2017-06-12T11:57:57.477Z,30.80
2017-06-12T12:00:23.721Z,30.80
2017-06-12T12:02:50.045Z,30.90
2017-06-12T12:05:16.327Z,31.00
2017-06-12T12:07:42.576Z,31.10
2017-06-12T12:10:09.246Z,31.30
2017-06-12T12:12:35.513Z,31.30
2017-06-12T12:15:01.784Z,31.60
2017-06-12T12:17:28.560Z,32.00
2017-06-12T12:19:54.834Z,31.90
2017-06-12T12:22:21.113Z,32.10
2017-06-12T12:24:47.373Z,32.50
2017-06-12T12:27:13.661Z,32.60
2017-06-12T12:29:39.942Z,32.70
2017-06-12T12:32:06.240Z,32.80
2017-06-12T12:34:32.541Z,32.90
2017-06-12T12:36:58.789Z,33.00
2017-06-12T12:39:25.061Z,33.40
2017-06-12T12:41:51.330Z,33.90
2017-06-12T12:44:17.592Z,34.60
2017-06-12T12:46:43.885Z,35.10
2017-06-12T12:49:10.193Z,35.70
2017-06-12T12:51:37.312Z,35.90
2017-06-12T12:54:03.562Z,36.30
2017-06-12T12:56:30.208Z,37.40
2017-06-12T12:58:56.840Z,37.60
2017-06-12T13:01:23.511Z,37.50
2017-06-12T13:03:49.792Z,37.50
2017-06-12T13:06:16.096Z,37.40
2017-06-12T13:08:42.361Z,37.00
2017-06-12T13:11:10.259Z,37.10
2017-06-12T13:13:36.576Z,37.50
2017-06-12T13:16:02.854Z,37.80
2017-06-12T13:18:29.120Z,37.80
2017-06-12T13:20:55.377Z,38.00
2017-06-12T13:23:21.704Z,38.40
2017-06-12T13:25:47.954Z,38.60
2017-06-12T13:28:14.223Z,38.70
2017-06-12T13:30:40.544Z,38.80
2017-06-12T13:33:06.807Z,39.10
2017-06-12T13:35:33.099Z,39.60
2017-06-12T13:37:59.428Z,40.00
2017-06-12T13:40:25.705Z,40.50
2017-06-12T13:42:53.265Z,39.80
2017-06-12T13:45:19.673Z,39.50
2017-06-12T13:47:45.925Z,39.40
2017-06-12T13:50:12.334Z,39.70
2017-06-12T13:52:38.997Z,40.50
2017-06-12T13:55:05.268Z,40.50
2017-06-12T13:57:31.557Z,40.60
2017-06-12T13:59:57.849Z,40.90
2017-06-12T14:02:24.755Z,41.70
2017-06-12T14:04:51.033Z,41.20
2017-06-12T14:07:17.304Z,40.80
2017-06-12T14:09:43.799Z,40.50
2017-06-12T14:12:10.450Z,41.20
2017-06-12T14:14:37.080Z,41.70
2017-06-12T14:17:03.730Z,42.50
2017-06-12T14:19:29.968Z,42.50
2017-06-12T14:21:56.249Z,42.80
2017-06-12T14:24:22.524Z,43.10
2017-06-12T14:26:48.781Z,43.40
2017-06-12T14:29:15.053Z,44.00
2017-06-12T14:31:41.321Z,43.90
2017-06-12T14:34:07.714Z,44.00
2017-06-12T14:36:34.857Z,44.40
2017-06-12T14:39:01.101Z,44.60
2017-06-12T14:41:28.168Z,44.50
2017-06-12T14:43:54.416Z,43.30
2017-06-12T14:46:20.709Z,43.30
2017-06-12T14:48:47.130Z,43.20
2017-06-12T14:51:14.048Z,43.20
2017-06-12T14:53:40.335Z,43.20
2017-06-12T14:56:06.585Z,43.40
2017-06-12T14:58:32.869Z,43.40
2017-06-12T15:00:59.515Z,42.50
2017-06-12T15:03:26.208Z,42.40
2017-06-12T15:05:52.479Z,42.40
2017-06-12T15:08:18.802Z,42.30
2017-06-12T15:10:45.586Z,43.10
2017-06-12T15:13:11.861Z,43.20
2017-06-12T15:15:38.174Z,43.60
2017-06-12T15:18:04.457Z,44.10
2017-06-12T15:20:30.772Z,44.30
2017-06-12T15:22:57.398Z,44.50
2017-06-12T15:25:24.019Z,43.80
2017-06-12T15:27:50.323Z,43.80
2017-06-12T15:30:16.694Z,42.90
2017-06-12T15:32:43.360Z,42.50
2017-06-12T15:35:09.628Z,42.50
2017-06-12T15:37:35.921Z,42.70
2017-06-12T15:40:02.193Z,42.60
2017-06-12T15:42:28.438Z,42.50
2017-06-12T15:44:54.760Z,42.10
2017-06-12T15:47:21.024Z,42.00
2017-06-12T15:49:47.288Z,42.40
2017-06-12T15:52:13.771Z,42.60
2017-06-12T15:54:40.037Z,43.10
2017-06-12T15:57:06.333Z,43.00
2017-06-12T15:59:32.640Z,43.10
2017-06-12T16:01:58.929Z,43.50
2017-06-12T16:04:25.320Z,43.80
2017-06-12T16:06:51.564Z,43.90
2017-06-12T16:09:18.233Z,44.50
2017-06-12T16:11:44.521Z,44.50
2017-06-12T16:14:10.832Z,43.90
2017-06-12T16:16:38.178Z,43.40
2017-06-12T16:19:04.538Z,43.40
2017-06-12T16:21:31.185Z,43.70
2017-06-12T16:23:57.419Z,43.70
2017-06-12T16:26:23.696Z,43.40
2017-06-12T16:28:49.992Z,42.80
2017-06-12T16:31:16.304Z,42.10
2017-06-12T16:33:42.599Z,42.10
2017-06-12T16:36:08.937Z,42.00
2017-06-12T16:38:35.228Z,42.30
2017-06-12T16:41:01.497Z,42.40
2017-06-12T16:43:27.760Z,41.90
2017-06-12T16:45:54.025Z,41.90
2017-06-12T16:48:20.320Z,42.00
2017-06-12T16:50:46.611Z,41.70
2017-06-12T16:53:12.898Z,41.80
2017-06-12T16:55:39.203Z,41.80
2017-06-12T16:58:05.522Z,41.50
2017-06-12T17:00:31.821Z,41.20
2017-06-12T17:02:58.096Z,40.80
2017-06-12T17:05:24.407Z,39.90
2017-06-12T17:07:50.701Z,38.30
2017-06-12T17:10:16.996Z,36.60
2017-06-12T17:12:43.261Z,35.00
2017-06-12T17:15:09.525Z,33.60
2017-06-12T17:17:35.868Z,32.40
2017-06-12T17:20:02.156Z,31.60
2017-06-12T17:22:28.440Z,30.70
2017-06-12T17:24:54.766Z,30.00
2017-06-12T17:27:21.062Z,29.50
2017-06-12T17:29:47.376Z,29.10
2017-06-12T17:32:13.651Z,28.70
2017-06-12T17:34:39.930Z,28.50
2017-06-12T17:37:06.193Z,28.20
2017-06-12T17:39:32.508Z,28.10
2017-06-12T17:41:58.778Z,28.00
2017-06-12T17:44:25.057Z,27.80
2017-06-12T17:46:51.371Z,27.60
2017-06-12T17:49:18.118Z,27.40
2017-06-12T17:51:45.358Z,27.40
2017-06-12T17:54:11.658Z,27.20
2017-06-12T17:56:37.936Z,27.00
2017-06-12T17:59:04.205Z,26.90
2017-06-12T18:01:30.514Z,26.70
2017-06-12T18:03:56.781Z,26.70
2017-06-12T18:06:23.065Z,26.80
2017-06-12T18:08:49.323Z,27.00
2017-06-12T18:11:15.962Z,28.00
2017-06-12T18:13:42.218Z,29.60
2017-06-12T18:16:08.489Z,31.10
2017-06-12T18:18:34.765Z,32.00
2017-06-12T18:21:01.065Z,32.30
2017-06-12T18:23:27.713Z,30.30
2017-06-12T18:25:54.008Z,30.30
2017-06-12T18:28:20.297Z,29.10
2017-06-12T18:30:46.634Z,28.10
2017-06-12T18:33:13.047Z,27.20
2017-06-12T18:35:39.317Z,26.60
2017-06-12T18:38:05.586Z,26.20
2017-06-12T18:40:31.911Z,25.90
2017-06-12T18:42:58.882Z,25.30
2017-06-12T18:45:25.184Z,25.30
2017-06-12T18:47:51.837Z,24.80
2017-06-12T18:50:18.129Z,24.80
2017-06-12T18:52:44.441Z,24.60
2017-06-12T18:55:10.702Z,24.50
2017-06-12T18:57:37.018Z,24.30
2017-06-12T19:00:03.348Z,24.00
2017-06-12T19:02:29.661Z,23.90
2017-06-12T19:04:56.711Z,23.70
2017-06-12T19:07:22.975Z,23.70
2017-06-12T19:09:49.277Z,23.60
2017-06-12T19:12:15.560Z,23.50
2017-06-12T19:14:42.438Z,23.30
2017-06-12T19:17:08.717Z,23.20
2017-06-12T19:19:35.002Z,23.10
2017-06-12T19:22:01.487Z,22.90
2017-06-12T19:24:27.807Z,22.80
2017-06-12T19:26:54.157Z,22.80
2017-06-12T19:29:20.398Z,22.60
2017-06-12T19:31:47.055Z,22.50
2017-06-12T19:34:13.312Z,22.40
2017-06-12T19:36:39.685Z,22.40
2017-06-12T19:39:06.019Z,22.40
2017-06-12T19:41:32.621Z,22.30
2017-06-12T19:43:58.914Z,22.20
2017-06-12T19:46:25.980Z,22.00
2017-06-12T19:48:52.257Z,21.90
2017-06-12T19:51:18.514Z,21.80
2017-06-12T19:53:45.378Z,21.70
2017-06-12T19:56:11.738Z,21.70
2017-06-12T19:58:38.035Z,21.70
2017-06-12T20:01:04.422Z,21.60
2017-06-12T20:03:30.769Z,21.40
2017-06-12T20:05:57.057Z,21.30
2017-06-12T20:08:23.893Z,21.10
2017-06-12T20:10:50.735Z,21.00
2017-06-12T20:13:17.160Z,20.90
2017-06-12T20:15:43.481Z,20.90
2017-06-12T20:18:09.817Z,20.80
2017-06-12T20:20:36.097Z,20.70
2017-06-12T20:23:02.425Z,20.60
2017-06-12T20:25:28.829Z,20.50
2017-06-12T20:27:55.156Z,20.50
2017-06-12T20:30:21.870Z,20.30
2017-06-12T20:32:48.168Z,20.30
2017-06-12T20:35:14.505Z,20.20
2017-06-12T20:37:40.810Z,20.10
2017-06-12T20:40:07.123Z,20.10
2017-06-12T20:42:33.875Z,20.00
2017-06-12T20:45:00.205Z,20.00
2017-06-12T20:47:26.534Z,20.00
2017-06-12T20:49:53.054Z,20.10
2017-06-12T20:52:20.573Z,19.80
2017-06-12T20:54:46.891Z,19.80
2017-06-12T20:57:13.787Z,19.70
2017-06-12T20:59:41.740Z,19.60
2017-06-12T21:02:09.114Z,19.60
2017-06-12T21:04:42.250Z,19.50
2017-06-12T21:07:09.833Z,19.50
2017-06-12T21:09:43.426Z,19.50
2017-06-12T21:12:11.271Z,19.50
2017-06-12T21:14:37.575Z,19.40
2017-06-12T21:17:04.804Z,19.30
2017-06-12T21:19:34.153Z,19.20
2017-06-12T21:22:02.053Z,19.20
2017-06-12T21:24:28.398Z,19.10
2017-06-12T21:26:55.561Z,19.00
2017-06-12T21:29:23.586Z,19.00
2017-06-12T21:31:50.752Z,18.90
2017-06-12T21:34:18.094Z,18.90
2017-06-12T21:36:46.188Z,18.80
2017-06-12T21:39:13.965Z,18.70
2017-06-12T21:41:40.304Z,18.60
2017-06-12T21:44:06.598Z,18.60
2017-06-12T21:46:32.901Z,18.40
2017-06-12T21:48:59.210Z,18.40
2017-06-12T21:51:26.123Z,18.40
2017-06-12T21:53:53.352Z,18.40
2017-06-12T21:56:20.498Z,18.40
2017-06-12T21:58:50.983Z,18.30
2017-06-12T22:01:18.390Z,18.30
2017-06-12T22:03:46.000Z,18.20
2017-06-12T22:06:14.321Z,18.20
2017-06-12T22:08:42.160Z,18.20
2017-06-12T22:11:08.458Z,18.20
2017-06-12T22:13:35.339Z,18.20
2017-06-12T22:16:01.706Z,18.10
2017-06-12T22:18:28.020Z,18.00
2017-06-12T22:20:54.346Z,18.00
2017-06-12T22:23:20.641Z,17.90
2017-06-12T22:25:48.229Z,17.80
2017-06-12T22:28:14.580Z,17.80
2017-06-12T22:30:40.918Z,17.70
2017-06-12T22:35:41.389Z,17.70
2017-06-12T22:40:41.614Z,17.70
2017-06-12T22:43:08.844Z,17.60
2017-06-12T22:45:36.250Z,17.60
2017-06-12T22:48:04.712Z,17.60
2017-06-12T22:50:32.256Z,17.50
2017-06-12T22:52:59.528Z,17.40
2017-06-12T22:55:25.866Z,17.30
2017-06-12T22:57:55.507Z,17.30
2017-06-12T23:00:21.800Z,17.40
2017-06-12T23:02:51.293Z,17.40
2017-06-12T23:05:19.546Z,17.40
2017-06-12T23:07:45.864Z,17.40
2017-06-12T23:10:18.143Z,17.30
2017-06-12T23:12:46.740Z,17.20
2017-06-12T23:15:13.178Z,17.20
2017-06-12T23:17:41.629Z,17.10
2017-06-12T23:20:07.934Z,17.10
2017-06-12T23:22:34.242Z,17.20
2017-06-12T23:25:00.562Z,17.20
2017-06-12T23:27:32.961Z,17.20
2017-06-12T23:29:59.265Z,17.10
2017-06-12T23:32:25.536Z,17.00
2017-06-12T23:34:51.826Z,16.90
2017-06-12T23:37:18.128Z,16.90
2017-06-12T23:39:44.429Z,16.90
2017-06-12T23:42:10.753Z,17.00
2017-06-12T23:44:37.050Z,17.00
2017-06-12T23:47:03.349Z,17.10
2017-06-12T23:49:29.746Z,17.00
2017-06-12T23:51:56.084Z,17.10
2017-06-12T23:54:22.389Z,17.00
2017-06-12T23:56:49.672Z,17.00
2017-06-12T23:59:15.966Z,17.00
